Time,TemperatureF,DewpointF,PressureIn,WindDirection,WindDirectionDegrees,WindSpeedMPH,WindSpeedGustMPH,Humidity,HourlyPrecipIn,Conditions,Clouds,dailyrainin,SolarRadiationWatts/m^2,SoftwareType,DateUTC
2013-02-01 00:02:00,34.0,24.0,-100.00,West,280,2.0,4.0,66,0.00,,,0.00,0.000000,,2013-02-01 05:02:00,
2013-02-01 00:32:00,34.0,24.0,-100.00,West,280,2.0,4.0,66,0.00,,,0.00,0.000000,,2013-02-01 05:32:00,
2013-02-01 00:42:00,34.0,24.0,-100.00,West,280,2.0,4.0,66,0.00,,,0.00,0.000000,,2013-02-01 05:42:00,
2013-02-01 00:52:00,34.0,24.0,-100.00,West,280,2.0,4.0,66,0.00,,,0.00,0.000000,,2013-02-01 05:52:00,
2013-02-01 01:02:00,34.0,25.0,-100.00,NW,307,2.0,5.0,68,0.00,,,0.00,0.000000,,2013-02-01 06:02:00,
2013-02-01 01:32:00,34.0,25.0,-100.00,NW,307,2.0,5.0,68,0.00,,,0.00,0.000000,,2013-02-01 06:32:00,
2013-02-01 01:42:00,34.0,25.0,-100.00,NW,307,2.0,5.0,68,0.00,,,0.00,0.000000,,2013-02-01 06:42:00,
2013-02-01 01:52:00,34.0,25.0,-100.00,NW,307,2.0,5.0,68,0.00,,,0.00,0.000000,,2013-02-01 06:52:00,
2013-02-01 02:32:00,34.0,25.0,-100.00,WSW,251,2.0,6.0,68,0.00,,,0.00,0.000000,,2013-02-01 07:32:00,
2013-02-01 02:42:00,34.0,25.0,-100.00,WSW,251,2.0,6.0,68,0.00,,,0.00,0.000000,,2013-02-01 07:42:00,
2013-02-01 02:52:00,34.0,25.0,-100.00,WSW,251,2.0,6.0,68,0.00,,,0.00,0.000000,,2013-02-01 07:52:00,
2013-02-01 03:01:00,34.0,25.0,-100.00,WSW,251,2.0,6.0,68,0.00,,,0.00,0.000000,,2013-02-01 08:01:00,
2013-02-01 03:32:00,31.0,25.0,-100.00,NW,308,2.0,7.0,77,0.00,,,0.00,0.000000,,2013-02-01 08:32:00,
2013-02-01 04:32:00,35.0,26.0,-100.00,WSW,256,3.0,9.0,68,-99.99,,,0.00,0.000000,,2013-02-01 09:32:00,
2013-02-01 04:42:00,35.0,26.0,-100.00,WSW,256,3.0,9.0,68,-99.99,,,0.00,0.000000,,2013-02-01 09:42:00,
2013-02-01 04:52:00,35.0,26.0,-100.00,WSW,256,3.0,9.0,68,-99.99,,,0.00,0.000000,,2013-02-01 09:52:00,
2013-02-01 05:01:00,35.0,26.0,-100.00,WSW,256,3.0,9.0,68,-99.99,,,0.00,0.000000,,2013-02-01 10:01:00,
2013-02-01 05:02:00,36.0,28.0,-100.00,WNW,302,3.0,9.0,71,0.00,,,0.00,0.000000,,2013-02-01 10:02:00,
2013-02-01 05:21:00,36.0,28.0,-100.00,WNW,302,3.0,9.0,71,0.00,,,0.00,0.000000,,2013-02-01 10:21:00,
2013-02-01 05:32:00,36.0,28.0,-100.00,WNW,302,3.0,9.0,71,0.00,,,0.00,0.000000,,2013-02-01 10:32:00,
2013-02-01 05:43:00,36.0,28.0,-100.00,WNW,302,3.0,9.0,71,0.00,,,0.00,0.000000,,2013-02-01 10:43:00,
2013-02-01 05:53:00,36.0,28.0,-100.00,WNW,302,3.0,9.0,71,0.00,,,0.00,0.000000,,2013-02-01 10:53:00,
2013-02-01 06:02:00,36.0,25.0,-100.00,NW,311,7.0,15.0,64,0.00,,,0.00,0.000000,,2013-02-01 11:02:00,
2013-02-01 06:32:00,36.0,25.0,-100.00,NW,311,7.0,15.0,64,0.00,,,0.00,0.000000,,2013-02-01 11:32:00,
2013-02-01 06:42:00,36.0,25.0,-100.00,NW,311,7.0,15.0,64,0.00,,,0.00,0.000000,,2013-02-01 11:42:00,
2013-02-01 06:53:00,36.0,25.0,-100.00,NW,311,7.0,15.0,64,0.00,,,0.00,0.000000,,2013-02-01 11:53:00,
2013-02-01 07:02:00,34.0,20.0,-100.00,NW,319,8.0,13.0,55,0.00,,,0.00,0.000000,,2013-02-01 12:02:00,
2013-02-01 07:23:00,34.0,20.0,-100.00,NW,319,8.0,13.0,55,0.00,,,0.00,0.000000,,2013-02-01 12:23:00,
2013-02-01 07:32:00,34.0,20.0,-100.00,NW,319,8.0,13.0,55,0.00,,,0.00,0.000000,,2013-02-01 12:32:00,
2013-02-01 07:42:00,34.0,20.0,-100.00,NW,319,8.0,13.0,55,0.00,,,0.00,0.000000,,2013-02-01 12:42:00,
2013-02-01 07:52:00,34.0,20.0,-100.00,NW,319,8.0,13.0,55,0.00,,,0.00,0.000000,,2013-02-01 12:52:00,
2013-02-01 08:02:00,31.0,13.0,-100.00,NW,316,6.0,15.0,47,0.00,,,0.00,3.000000,,2013-02-01 13:02:00,
2013-02-01 08:33:00,31.0,13.0,-100.00,NW,316,6.0,15.0,47,0.00,,,0.00,3.000000,,2013-02-01 13:33:00,
2013-02-01 08:43:00,31.0,13.0,-100.00,NW,316,6.0,15.0,47,0.00,,,0.00,3.000000,,2013-02-01 13:43:00,
2013-02-01 08:53:00,31.0,13.0,-100.00,NW,316,6.0,15.0,47,0.00,,,0.00,3.000000,,2013-02-01 13:53:00,
2013-02-01 09:02:00,30.0,8.0,-100.00,NW,326,7.0,13.0,38,0.00,,,0.00,39.000000,,2013-02-01 14:02:00,
2013-02-01 09:32:00,30.0,8.0,-100.00,NW,326,7.0,13.0,38,0.00,,,0.00,39.000000,,2013-02-01 14:32:00,
2013-02-01 09:42:00,30.0,8.0,-100.00,NW,326,7.0,13.0,38,0.00,,,0.00,39.000000,,2013-02-01 14:42:00,
2013-02-01 09:53:00,30.0,8.0,-100.00,NW,326,7.0,13.0,38,0.00,,,0.00,39.000000,,2013-02-01 14:53:00,
2013-02-01 10:02:00,31.0,9.0,-100.00,NW,326,6.0,14.0,39,0.00,,,0.00,55.000000,,2013-02-01 15:02:00,
2013-02-01 10:33:00,31.0,9.0,-100.00,NW,326,6.0,14.0,39,0.00,,,0.00,55.000000,,2013-02-01 15:33:00,
2013-02-01 10:42:00,31.0,9.0,-100.00,NW,326,6.0,14.0,39,0.00,,,0.00,55.000000,,2013-02-01 15:42:00,
2013-02-01 10:52:00,31.0,9.0,-100.00,NW,326,6.0,14.0,39,0.00,,,0.00,55.000000,,2013-02-01 15:52:00,
2013-02-01 11:02:00,34.0,7.0,-100.00,NW,322,7.0,15.0,31,0.00,,,0.00,248.000000,,2013-02-01 16:02:00,
2013-02-01 11:33:00,34.0,7.0,-100.00,NW,322,7.0,15.0,31,0.00,,,0.00,248.000000,,2013-02-01 16:33:00,
2013-02-01 11:43:00,34.0,7.0,-100.00,NW,322,7.0,15.0,31,0.00,,,0.00,248.000000,,2013-02-01 16:43:00,
2013-02-01 11:53:00,34.0,7.0,-100.00,NW,322,7.0,15.0,31,0.00,,,0.00,248.000000,,2013-02-01 16:53:00,
2013-02-01 12:02:00,36.0,3.0,-100.00,NW,320,8.0,14.0,24,0.00,,,0.00,508.000000,,2013-02-01 17:02:00,
2013-02-01 12:32:00,36.0,3.0,-100.00,NW,320,8.0,14.0,24,0.00,,,0.00,508.000000,,2013-02-01 17:32:00,
2013-02-01 12:42:00,36.0,3.0,-100.00,NW,320,8.0,14.0,24,0.00,,,0.00,508.000000,,2013-02-01 17:42:00,
2013-02-01 12:53:00,36.0,3.0,-100.00,NW,320,8.0,14.0,24,0.00,,,0.00,508.000000,,2013-02-01 17:53:00,
2013-02-01 13:02:00,39.0,2.0,-100.00,NNW,333,8.0,12.0,21,0.00,,,0.00,712.000000,,2013-02-01 18:02:00,
2013-02-01 13:23:00,39.0,2.0,-100.00,NNW,333,8.0,12.0,21,0.00,,,0.00,712.000000,,2013-02-01 18:23:00,
2013-02-01 13:33:00,39.0,2.0,-100.00,NNW,333,8.0,12.0,21,0.00,,,0.00,712.000000,,2013-02-01 18:33:00,
2013-02-01 13:42:00,39.0,2.0,-100.00,NNW,333,8.0,12.0,21,0.00,,,0.00,712.000000,,2013-02-01 18:42:00,
2013-02-01 13:53:00,39.0,2.0,-100.00,NNW,333,8.0,12.0,21,0.00,,,0.00,712.000000,,2013-02-01 18:53:00,
2013-02-01 14:02:00,41.0,4.0,-100.00,NNW,334,6.0,15.0,21,0.00,,,0.00,705.000000,,2013-02-01 19:02:00,
2013-02-01 14:32:00,41.0,4.0,-100.00,NNW,334,6.0,15.0,21,0.00,,,0.00,705.000000,,2013-02-01 19:32:00,
2013-02-01 14:42:00,41.0,4.0,-100.00,NNW,334,6.0,15.0,21,0.00,,,0.00,705.000000,,2013-02-01 19:42:00,
2013-02-01 14:52:00,41.0,4.0,-100.00,NNW,334,6.0,15.0,21,0.00,,,0.00,705.000000,,2013-02-01 19:52:00,
2013-02-01 15:02:00,42.0,3.0,-100.00,NNW,334,7.0,13.0,19,0.00,,,0.00,628.000000,,2013-02-01 20:02:00,
2013-02-01 15:22:00,42.0,3.0,-100.00,NNW,334,7.0,13.0,19,0.00,,,0.00,628.000000,,2013-02-01 20:22:00,
2013-02-01 15:32:00,42.0,3.0,-100.00,NNW,334,7.0,13.0,19,0.00,,,0.00,628.000000,,2013-02-01 20:32:00,
2013-02-01 15:42:00,42.0,3.0,-100.00,NNW,334,7.0,13.0,19,0.00,,,0.00,628.000000,,2013-02-01 20:42:00,
2013-02-01 15:52:00,42.0,3.0,-100.00,NNW,334,7.0,13.0,19,0.00,,,0.00,628.000000,,2013-02-01 20:52:00,
2013-02-01 16:32:00,41.0,-2.0,-100.00,NNW,332,6.0,14.0,16,0.00,,,0.00,490.000000,,2013-02-01 21:32:00,
2013-02-01 17:02:00,36.0,8.0,-100.00,NW,311,5.0,11.0,31,0.00,,,0.00,137.000000,,2013-02-01 22:02:00,
2013-02-01 17:32:00,36.0,8.0,-100.00,NW,311,5.0,11.0,31,0.00,,,0.00,137.000000,,2013-02-01 22:32:00,
2013-02-01 17:42:00,36.0,8.0,-100.00,NW,311,5.0,11.0,31,0.00,,,0.00,137.000000,,2013-02-01 22:42:00,
2013-02-01 17:52:00,36.0,8.0,-100.00,NW,311,5.0,11.0,31,0.00,,,0.00,137.000000,,2013-02-01 22:52:00,
2013-02-01 18:02:00,32.0,6.0,-100.00,NW,308,4.0,10.0,33,0.00,,,0.00,15.000000,,2013-02-01 23:02:00,
2013-02-01 18:32:00,32.0,6.0,-100.00,NW,308,4.0,10.0,33,0.00,,,0.00,15.000000,,2013-02-01 23:32:00,
2013-02-01 18:42:00,32.0,6.0,-100.00,NW,308,4.0,10.0,33,0.00,,,0.00,15.000000,,2013-02-01 23:42:00,
2013-02-01 18:52:00,32.0,6.0,-100.00,NW,308,4.0,10.0,33,0.00,,,0.00,15.000000,,2013-02-01 23:52:00,
2013-02-01 19:02:00,30.0,6.0,-100.00,NW,315,5.0,10.0,35,0.00,,,0.00,1.000000,,2013-02-02 00:02:00,
2013-02-01 19:32:00,30.0,6.0,-100.00,NW,315,5.0,10.0,35,0.00,,,0.00,1.000000,,2013-02-02 00:32:00,
2013-02-01 19:42:00,30.0,6.0,-100.00,NW,315,5.0,10.0,35,0.00,,,0.00,1.000000,,2013-02-02 00:42:00,
2013-02-01 19:52:00,30.0,6.0,-100.00,NW,315,5.0,10.0,35,0.00,,,0.00,1.000000,,2013-02-02 00:52:00,
2013-02-01 20:32:00,28.0,7.0,-100.00,NW,315,5.0,6.0,40,0.00,,,0.00,0.000000,,2013-02-02 01:32:00,
2013-02-01 20:42:00,28.0,7.0,-100.00,NW,315,5.0,6.0,40,0.00,,,0.00,0.000000,,2013-02-02 01:42:00,
2013-02-01 20:52:00,28.0,7.0,-100.00,NW,315,5.0,6.0,40,0.00,,,0.00,0.000000,,2013-02-02 01:52:00,
2013-02-01 21:01:00,28.0,7.0,-100.00,NW,315,5.0,6.0,40,0.00,,,0.00,0.000000,,2013-02-02 02:01:00,
2013-02-01 21:02:00,29.0,6.0,-100.00,NW,325,4.0,6.0,37,0.00,,,0.00,0.000000,,2013-02-02 02:02:00,
2013-02-01 21:32:00,29.0,6.0,-100.00,NW,325,4.0,6.0,37,0.00,,,0.00,0.000000,,2013-02-02 02:32:00,
2013-02-01 21:42:00,29.0,6.0,-100.00,NW,325,4.0,6.0,37,0.00,,,0.00,0.000000,,2013-02-02 02:42:00,
2013-02-01 21:52:00,29.0,6.0,-100.00,NW,325,4.0,6.0,37,0.00,,,0.00,0.000000,,2013-02-02 02:52:00,
2013-02-01 22:02:00,27.0,6.0,-100.00,North,353,2.0,5.0,41,0.00,,,0.00,0.000000,,2013-02-02 03:02:00,
2013-02-01 22:22:00,27.0,6.0,-100.00,North,353,2.0,5.0,41,0.00,,,0.00,0.000000,,2013-02-02 03:22:00,
2013-02-01 22:32:00,27.0,6.0,-100.00,North,353,2.0,5.0,41,0.00,,,0.00,0.000000,,2013-02-02 03:32:00,
2013-02-01 22:42:00,27.0,6.0,-100.00,North,353,2.0,5.0,41,0.00,,,0.00,0.000000,,2013-02-02 03:42:00,
2013-02-01 22:52:00,27.0,6.0,-100.00,North,353,2.0,5.0,41,0.00,,,0.00,0.000000,,2013-02-02 03:52:00,
2013-02-01 23:02:00,26.0,7.0,-100.00,NNW,346,2.0,3.0,43,0.00,,,0.00,0.000000,,2013-02-02 04:02:00,
2013-02-01 23:33:00,26.0,7.0,-100.00,NNW,346,2.0,3.0,43,0.00,,,0.00,0.000000,,2013-02-02 04:33:00,
2013-02-01 23:42:00,26.0,7.0,-100.00,NNW,346,2.0,3.0,43,0.00,,,0.00,0.000000,,2013-02-02 04:42:00,
2013-02-01 23:52:00,26.0,7.0,-100.00,NNW,346,2.0,3.0,43,0.00,,,0.00,0.000000,,2013-02-02 04:52:00,